Time;durP1;ratioP1;P1;durP2;ratioP2;P2;SDS_P1;SDS_P2;PMS_P1;PMS_P2;Temp;Humidity;BMP_temperature;BMP_pressure;BME280_temperature;BME280_humidity;BME280_pressure;Samples;Min_cycle;Max_cycle;Signal;HPM_P1;HPM_P2
2020/12/20 00:01:19;;;;;;;8.10;7.30;;;11.50;53.10;;;;;;4858728;29;20548;-76
2020/12/20 00:03:46;;;;;;;8.13;7.53;;;11.50;53.10;;;;;;4860906;29;20817;-76
2020/12/20 00:06:13;;;;;;;8.00;7.27;;;11.40;53.10;;;;;;4859855;29;20945;-76
2020/12/20 00:08:39;;;;;;;7.57;6.87;;;11.30;53.30;;;;;;4860491;29;20459;-76
2020/12/20 00:11:06;;;;;;;8.63;7.10;;;11.30;53.40;;;;;;4860337;29;20520;-76
2020/12/20 00:13:34;;;;;;;8.43;7.47;;;11.30;53.60;;;;;;4860248;29;20848;-77
2020/12/20 00:16:01;;;;;;;7.50;6.73;;;11.30;53.40;;;;;;4860715;29;20450;-76
2020/12/20 00:18:27;;;;;;;7.73;7.13;;;11.30;53.50;;;;;;4843568;29;20616;-76
2020/12/20 00:20:54;;;;;;;9.47;8.47;;;11.40;53.30;;;;;;4859521;29;20464;-76
2020/12/20 00:23:21;;;;;;;8.00;6.27;;;11.40;53.10;;;;;;4859904;29;20475;-77
2020/12/20 00:25:47;;;;;;;7.40;6.70;;;11.40;52.90;;;;;;4860209;29;20507;-76
2020/12/20 00:28:14;;;;;;;7.30;6.60;;;11.50;52.90;;;;;;4857918;29;20476;-76
2020/12/20 00:30:41;;;;;;;7.20;6.60;;;11.50;52.80;;;;;;4860332;29;20461;-77
2020/12/20 00:33:08;;;;;;;9.03;8.23;;;11.60;52.80;;;;;;4860625;29;20511;-77
2020/12/20 00:35:34;;;;;;;7.47;6.77;;;11.50;52.60;;;;;;4859367;29;20483;-77
2020/12/20 00:38:01;;;;;;;8.00;7.30;;;11.60;52.60;;;;;;4860108;29;20548;-77
2020/12/20 00:40:28;;;;;;;8.13;7.20;;;11.60;52.60;;;;;;4860181;29;20806;-77
2020/12/20 00:42:54;;;;;;;8.00;7.30;;;11.60;52.60;;;;;;4860017;29;20482;-76
2020/12/20 00:45:21;;;;;;;6.67;6.17;;;11.60;52.60;;;;;;4859411;29;20508;-78
2020/12/20 00:47:49;;;;;;;8.73;7.93;;;11.60;52.60;;;;;;4859991;29;20452;-77
2020/12/20 00:52:57;;;;;;;8.90;8.00;;;11.60;52.60;;;;;;5035585;23;20489;-76
2020/12/20 00:55:23;;;;;;;7.37;6.73;;;11.60;52.60;;;;;;4859360;29;20466;-77
2020/12/20 00:57:50;;;;;;;7.73;6.97;;;11.70;52.70;;;;;;4861205;29;20468;-77
2020/12/20 01:00:16;;;;;;;7.40;6.70;;;11.70;52.60;;;;;;4860103;29;20540;-77
2020/12/20 01:02:43;;;;;;;7.53;6.53;;;11.70;52.50;;;;;;4873186;29;20467;-76
2020/12/20 01:05:11;;;;;;;7.80;7.10;;;11.70;52.50;;;;;;4877835;29;20503;-76
2020/12/20 01:07:37;;;;;;;9.07;8.27;;;11.70;52.40;;;;;;4878627;29;21108;-77
2020/12/20 01:10:04;;;;;;;9.03;8.13;;;11.70;52.40;;;;;;4877052;29;20474;-77
2020/12/20 01:12:32;;;;;;;7.97;7.27;;;11.60;52.50;;;;;;4875951;29;20520;-76
2020/12/20 01:14:58;;;;;;;7.63;6.93;;;11.60;52.60;;;;;;4867728;29;20473;-76
2020/12/20 01:17:25;;;;;;;8.40;7.63;;;11.70;52.70;;;;;;4878120;29;20463;-75
2020/12/20 01:19:51;;;;;;;7.90;7.10;;;11.70;52.80;;;;;;4865080;29;20458;-76
2020/12/20 01:22:19;;;;;;;7.30;6.60;;;11.70;52.80;;;;;;4859553;29;20461;-75
2020/12/20 01:24:45;;;;;;;8.27;7.47;;;11.60;52.60;;;;;;4861004;29;20468;-75
2020/12/20 01:27:12;;;;;;;7.90;7.30;;;11.70;52.80;;;;;;4868859;29;20496;-76
2020/12/20 01:29:38;;;;;;;9.70;8.67;;;11.60;52.80;;;;;;4871205;29;20477;-76
2020/12/20 01:32:05;;;;;;;8.00;7.20;;;11.70;52.90;;;;;;4859982;29;20500;-76
2020/12/20 01:34:31;;;;;;;8.57;7.70;;;11.70;52.80;;;;;;4871372;29;20559;-75
2020/12/20 01:36:58;;;;;;;8.73;7.87;;;11.70;52.80;;;;;;4877859;29;20535;-76
2020/12/20 01:39:25;;;;;;;9.33;7.07;;;11.70;52.90;;;;;;4874476;29;20498;-75
2020/12/20 01:41:52;;;;;;;8.33;6.70;;;11.80;53.00;;;;;;4874662;29;20898;-76
2020/12/20 01:44:19;;;;;;;8.27;7.37;;;11.80;53.00;;;;;;4865407;29;20807;-76
2020/12/20 01:46:48;;;;;;;9.50;7.73;;;11.90;52.80;;;;;;4863204;29;20996;-76
2020/12/20 01:49:14;;;;;;;9.23;7.00;;;11.90;52.80;;;;;;4880659;29;21007;-76
2020/12/20 01:51:41;;;;;;;14.90;8.00;;;11.90;52.90;;;;;;4864003;29;20532;-77
2020/12/20 01:54:10;;;;;;;7.80;7.10;;;12.00;53.00;;;;;;4868894;29;20551;-75
2020/12/20 01:56:37;;;;;;;9.03;7.40;;;12.00;53.10;;;;;;4863385;29;20835;-76
2020/12/20 01:59:04;;;;;;;8.43;7.53;;;12.00;53.20;;;;;;4868913;29;20830;-76
2020/12/20 02:01:31;;;;;;;8.40;7.50;;;11.90;53.10;;;;;;4873428;29;20864;-76
2020/12/20 02:03:57;;;;;;;7.30;6.70;;;12.00;53.20;;;;;;4862949;29;20464;-76
2020/12/20 02:06:24;;;;;;;8.50;6.80;;;12.00;52.90;;;;;;4868799;29;21072;-76
2020/12/20 02:08:50;;;;;;;8.60;7.10;;;12.00;53.00;;;;;;4879864;29;20489;-76
2020/12/20 02:11:17;;;;;;;9.67;6.80;;;12.00;52.90;;;;;;4864790;29;20469;-76
2020/12/20 02:13:46;;;;;;;7.40;6.00;;;12.00;53.00;;;;;;4872334;29;20941;-77
2020/12/20 02:16:14;;;;;;;7.80;6.93;;;12.00;53.10;;;;;;4880916;29;20459;-77
2020/12/20 02:18:40;;;;;;;6.40;5.80;;;12.00;53.20;;;;;;4864199;29;20476;-77
2020/12/20 02:21:13;;;;;;;6.93;6.23;;;12.00;53.40;;;;;;4877963;29;20480;-77
2020/12/20 02:23:40;;;;;;;6.60;6.00;;;12.00;53.40;;;;;;4880533;29;20464;-77
2020/12/20 02:26:07;;;;;;;6.23;5.70;;;12.10;53.50;;;;;;4877182;29;20504;-77
2020/12/20 02:28:34;;;;;;;6.20;5.60;;;12.10;53.40;;;;;;4872310;29;20475;-77
2020/12/20 02:31:01;;;;;;;6.53;6.00;;;12.00;53.30;;;;;;4877241;29;20834;-76
2020/12/20 02:33:27;;;;;;;6.40;5.80;;;12.10;53.40;;;;;;4878844;29;20472;-77
2020/12/20 02:35:54;;;;;;;8.20;6.23;;;12.00;53.20;;;;;;4879462;29;20961;-77
2020/12/20 02:38:21;;;;;;;6.70;6.10;;;12.00;53.30;;;;;;4880189;29;20537;-77
2020/12/20 02:40:48;;;;;;;7.10;5.80;;;12.00;53.30;;;;;;4879029;29;20542;-77
2020/12/20 02:43:14;;;;;;;6.60;6.10;;;12.10;53.40;;;;;;4879515;29;20459;-77
2020/12/20 02:45:41;;;;;;;6.70;6.10;;;12.10;52.90;;;;;;4870353;29;20495;-77
2020/12/20 02:48:07;;;;;;;6.50;5.90;;;12.10;52.80;;;;;;4879099;29;20475;-76
2020/12/20 02:50:35;;;;;;;7.90;6.23;;;12.10;52.80;;;;;;4879454;29;20461;-76
2020/12/20 02:53:01;;;;;;;6.60;5.97;;;12.10;52.60;;;;;;4879390;29;20556;-77
2020/12/20 02:55:29;;;;;;;6.93;6.00;;;12.10;52.40;;;;;;4879033;29;20543;-76
2020/12/20 02:57:55;;;;;;;6.80;6.20;;;12.10;52.40;;;;;;4867699;29;20962;-76
2020/12/20 03:00:22;;;;;;;7.40;6.70;;;12.10;52.30;;;;;;4871790;29;20819;-76
2020/12/20 03:02:49;;;;;;;8.67;7.10;;;12.10;52.40;;;;;;4880472;29;20467;-76
2020/12/20 03:05:17;;;;;;;7.20;6.60;;;12.10;52.40;;;;;;4870583;29;21533;-77
2020/12/20 03:07:44;;;;;;;8.10;7.40;;;12.10;52.40;;;;;;4860242;29;20469;-76
2020/12/20 03:10:10;;;;;;;7.37;6.67;;;12.10;52.40;;;;;;4866685;29;20887;-76
2020/12/20 03:12:38;;;;;;;7.00;6.40;;;12.10;52.40;;;;;;4879641;29;20481;-77
2020/12/20 03:15:05;;;;;;;7.47;6.73;;;12.00;52.40;;;;;;4879686;29;20468;-76
2020/12/20 03:17:32;;;;;;;7.03;6.43;;;12.00;52.40;;;;;;4880507;29;20831;-77
2020/12/20 03:19:59;;;;;;;7.83;7.03;;;12.00;52.50;;;;;;4873658;29;20472;-77
2020/12/20 03:22:25;;;;;;;8.37;7.30;;;12.00;52.50;;;;;;4865506;29;20476;-78
2020/12/20 03:24:52;;;;;;;7.60;6.90;;;12.00;52.50;;;;;;4873285;29;20454;-77
2020/12/20 03:27:18;;;;;;;8.53;7.80;;;12.00;52.60;;;;;;4879779;29;20467;-77
2020/12/20 03:29:46;;;;;;;6.80;5.97;;;12.00;52.60;;;;;;4868745;29;20460;-77
2020/12/20 03:32:12;;;;;;;7.93;7.33;;;11.90;52.60;;;;;;4864943;29;20456;-77
2020/12/20 03:34:39;;;;;;;7.80;7.10;;;11.90;52.60;;;;;;4879251;29;20814;-76
2020/12/20 03:37:06;;;;;;;8.00;7.20;;;11.90;52.80;;;;;;4873379;29;20461;-76
2020/12/20 03:39:32;;;;;;;8.47;7.57;;;11.90;53.00;;;;;;4864938;29;21037;-78
2020/12/20 03:41:59;;;;;;;9.00;7.53;;;11.80;53.00;;;;;;4877033;29;20476;-79
2020/12/20 03:44:26;;;;;;;7.27;6.57;;;11.80;53.10;;;;;;4864213;29;20817;-79
2020/12/20 03:46:53;;;;;;;8.37;7.50;;;11.80;53.10;;;;;;4861089;29;20920;-78
2020/12/20 03:49:20;;;;;;;7.60;7.00;;;11.80;53.10;;;;;;4870603;29;20458;-78
2020/12/20 03:51:46;;;;;;;7.20;6.60;;;11.80;53.20;;;;;;4877139;29;20562;-78
2020/12/20 03:54:13;;;;;;;8.47;7.67;;;11.80;53.30;;;;;;4868714;29;20468;-78
2020/12/20 03:56:40;;;;;;;8.33;6.87;;;11.80;53.30;;;;;;4860955;29;20492;-78
2020/12/20 03:59:06;;;;;;;7.80;7.20;;;11.80;53.50;;;;;;4865821;29;20460;-79
2020/12/20 04:01:33;;;;;;;8.10;7.30;;;11.80;53.50;;;;;;4877142;29;20528;-78
2020/12/20 04:04:01;;;;;;;7.97;7.20;;;11.80;53.80;;;;;;4865790;29;20516;-78
2020/12/20 04:06:27;;;;;;;7.07;6.47;;;11.80;53.80;;;;;;4877574;29;20506;-78
2020/12/20 04:08:54;;;;;;;7.40;6.70;;;11.70;53.90;;;;;;4878942;29;20864;-78
2020/12/20 04:11:20;;;;;;;8.20;7.40;;;11.70;53.90;;;;;;4878358;29;20511;-79
2020/12/20 04:13:47;;;;;;;8.63;7.83;;;11.70;54.00;;;;;;4870123;29;20476;-78
2020/12/20 04:16:14;;;;;;;9.40;6.50;;;11.70;54.20;;;;;;4871046;29;20458;-78
2020/12/20 04:18:43;;;;;;;8.37;7.63;;;11.70;54.30;;;;;;4875832;29;20965;-82
2020/12/20 04:21:11;;;;;;;7.70;6.80;;;11.60;54.30;;;;;;4878686;29;20461;-82
2020/12/20 04:23:38;;;;;;;8.73;7.93;;;11.60;54.40;;;;;;4867088;29;20935;-77
2020/12/20 04:26:06;;;;;;;10.27;6.97;;;11.60;54.50;;;;;;4861314;29;20557;-77
2020/12/20 04:28:32;;;;;;;7.83;7.13;;;11.60;54.60;;;;;;4865414;29;20498;-77
2020/12/20 04:30:59;;;;;;;7.83;7.00;;;11.60;54.70;;;;;;4879097;29;20973;-77
2020/12/20 04:33:26;;;;;;;7.50;6.90;;;11.60;54.70;;;;;;4875968;29;20464;-77
2020/12/20 04:35:52;;;;;;;7.97;7.30;;;11.60;54.70;;;;;;4864277;29;20463;-77
2020/12/20 04:38:20;;;;;;;8.57;7.67;;;11.60;54.80;;;;;;4864058;29;20981;-77
2020/12/20 04:40:46;;;;;;;7.70;7.00;;;11.60;54.90;;;;;;4865080;29;20457;-78
2020/12/20 04:43:13;;;;;;;8.43;7.63;;;11.60;54.80;;;;;;4868133;29;20476;-78
2020/12/20 04:45:44;;;;;;;7.97;7.27;;;11.70;54.80;;;;;;4874398;29;20586;-78
2020/12/20 04:48:12;;;;;;;7.30;6.67;;;11.70;54.80;;;;;;4875860;29;20472;-77
2020/12/20 04:50:42;;;;;;;7.30;6.70;;;11.70;54.80;;;;;;4873153;29;20535;-77
2020/12/20 04:53:10;;;;;;;9.93;7.40;;;11.70;54.80;;;;;;4858193;29;20493;-77
2020/12/20 04:55:39;;;;;;;8.10;7.43;;;11.70;54.80;;;;;;4870454;29;20476;-77
2020/12/20 04:58:06;;;;;;;7.57;6.87;;;11.70;54.90;;;;;;4870724;29;20464;-76
2020/12/20 05:00:32;;;;;;;8.13;7.33;;;11.80;55.10;;;;;;4874721;29;21067;-76
2020/12/20 05:02:59;;;;;;;8.13;7.33;;;11.70;55.00;;;;;;4878085;29;20980;-77
2020/12/20 05:05:29;;;;;;;9.73;7.00;;;11.70;55.00;;;;;;4875005;29;20514;-78
2020/12/20 05:07:57;;;;;;;8.60;7.60;;;11.80;55.20;;;;;;4873024;29;21017;-77
2020/12/20 05:10:39;;;;;;;8.30;7.60;;;11.70;55.20;;;;;;4862028;29;20499;-77
2020/12/20 05:13:05;;;;;;;8.40;7.57;;;11.70;55.30;;;;;;4859805;29;20458;-78
2020/12/20 05:15:32;;;;;;;8.00;7.30;;;11.70;55.40;;;;;;4867220;29;21013;-79
2020/12/20 05:18:05;;;;;;;7.87;7.17;;;11.70;55.40;;;;;;4868861;29;20463;-79
2020/12/20 05:20:37;;;;;;;7.83;7.13;;;11.70;55.60;;;;;;4859368;29;20840;-78
2020/12/20 05:23:05;;;;;;;7.50;6.90;;;11.70;55.70;;;;;;4864525;29;20950;-78
2020/12/20 05:25:32;;;;;;;7.70;7.00;;;11.60;55.70;;;;;;4870617;29;20993;-79
2020/12/20 05:28:11;;;;;;;7.83;7.03;;;11.60;56.00;;;;;;4870392;29;20496;-79
2020/12/20 05:30:39;;;;;;;7.50;6.70;;;11.60;56.10;;;;;;4874917;29;21283;-79
2020/12/20 05:33:06;;;;;;;6.73;6.23;;;11.60;56.00;;;;;;4873092;29;20472;-79
2020/12/20 05:35:33;;;;;;;8.53;7.10;;;11.60;56.10;;;;;;4871621;29;20600;-79
2020/12/20 05:38:00;;;;;;;7.50;6.80;;;11.60;55.90;;;;;;4875649;29;20495;-78
2020/12/20 05:40:29;;;;;;;7.13;6.53;;;11.60;55.80;;;;;;4878658;29;20462;-78
2020/12/20 05:42:58;;;;;;;7.50;6.80;;;11.60;55.60;;;;;;4869287;29;20484;-78
2020/12/20 05:45:29;;;;;;;8.40;7.60;;;11.60;55.40;;;;;;4863235;29;20859;-76
2020/12/20 05:47:56;;;;;;;7.53;6.90;;;11.60;55.30;;;;;;4872086;29;20456;-76
2020/12/20 05:50:28;;;;;;;7.40;6.60;;;11.60;55.00;;;;;;4879524;29;20476;-77
2020/12/20 05:53:05;;;;;;;7.97;7.27;;;11.70;55.10;;;;;;4871513;29;20559;-77
2020/12/20 05:55:36;;;;;;;10.20;6.90;;;11.60;55.00;;;;;;4880164;29;20471;-76
2020/12/20 05:58:14;;;;;;;10.20;8.00;;;11.60;55.00;;;;;;4866466;29;20513;-77
2020/12/20 06:00:43;;;;;;;7.13;6.50;;;11.60;54.90;;;;;;4879778;29;20507;-76
2020/12/20 06:03:10;;;;;;;8.43;7.67;;;11.60;54.80;;;;;;4867523;29;20465;-76
2020/12/20 06:05:38;;;;;;;7.80;7.10;;;11.60;54.70;;;;;;4871303;29;20659;-76
2020/12/20 06:08:07;;;;;;;7.90;7.03;;;11.60;54.80;;;;;;4862823;29;20468;-77
2020/12/20 06:10:39;;;;;;;8.63;7.73;;;11.60;54.80;;;;;;4874456;29;20971;-77
2020/12/20 06:13:08;;;;;;;7.73;6.90;;;11.60;54.70;;;;;;4879297;29;20865;-78
2020/12/20 06:15:40;;;;;;;7.47;6.70;;;11.50;54.70;;;;;;4880296;29;20490;-76
2020/12/20 06:18:13;;;;;;;9.23;6.70;;;11.50;54.70;;;;;;4877766;29;20886;-78
2020/12/20 06:21:01;;;;;;;8.03;6.80;;;11.50;54.60;;;;;;4862758;29;20516;-77
2020/12/20 06:23:29;;;;;;;8.47;7.50;;;11.40;54.60;;;;;;4870881;29;20545;-77
2020/12/20 06:25:57;;;;;;;11.43;7.13;;;11.40;55.20;;;;;;4867343;29;20545;-76
2020/12/20 06:28:25;;;;;;;7.87;6.83;;;11.40;54.70;;;;;;4877048;29;20462;-77
2020/12/20 06:30:52;;;;;;;7.33;6.63;;;11.30;54.70;;;;;;4863392;29;21089;-75
2020/12/20 06:33:27;;;;;;;7.60;7.00;;;11.30;54.80;;;;;;4869110;29;20459;-77
2020/12/20 06:35:55;;;;;;;9.33;7.00;;;11.20;54.90;;;;;;4873124;29;20461;-78
2020/12/20 06:38:24;;;;;;;7.87;6.97;;;11.20;55.20;;;;;;4874043;29;20550;-75
2020/12/20 06:40:52;;;;;;;8.10;7.40;;;11.20;55.20;;;;;;4867911;29;20461;-76
2020/12/20 06:43:32;;;;;;;7.07;6.37;;;11.20;55.00;;;;;;4867348;29;21178;-78
2020/12/20 06:45:59;;;;;;;8.03;7.40;;;11.20;55.10;;;;;;4869741;29;20997;-77
2020/12/20 06:48:37;;;;;;;7.17;6.50;;;11.20;55.10;;;;;;4874113;29;20536;-77
2020/12/20 06:51:05;;;;;;;8.47;7.50;;;11.20;55.00;;;;;;4870979;29;20525;-77
2020/12/20 06:53:52;;;;;;;7.90;7.23;;;11.20;55.00;;;;;;4870874;29;20570;-77
2020/12/20 06:56:20;;;;;;;7.17;6.53;;;11.20;55.00;;;;;;4876390;29;20530;-79
2020/12/20 06:58:47;;;;;;;8.73;7.00;;;11.20;55.00;;;;;;4867679;29;20468;-77
2020/12/20 07:01:36;;;;;;;8.87;7.97;;;11.20;55.00;;;;;;4875122;29;20833;-78
2020/12/20 07:04:05;;;;;;;9.07;8.20;;;11.30;54.90;;;;;;4875326;29;20459;-77
2020/12/20 07:06:32;;;;;;;7.60;6.90;;;11.30;55.00;;;;;;4867176;29;20494;-77
2020/12/20 07:09:07;;;;;;;6.87;6.20;;;11.30;55.10;;;;;;4869365;29;20463;-77
2020/12/20 07:11:41;;;;;;;8.10;7.27;;;11.30;54.90;;;;;;4879734;29;20537;-77
2020/12/20 07:14:19;;;;;;;6.47;5.90;;;11.30;54.80;;;;;;4869803;29;22038;-77
2020/12/20 07:16:47;;;;;;;8.13;7.30;;;11.30;54.80;;;;;;4866057;29;20476;-77
2020/12/20 07:19:24;;;;;;;7.43;6.80;;;11.30;54.80;;;;;;4870823;29;20464;-78
2020/12/20 07:22:00;;;;;;;6.67;6.00;;;11.30;54.70;;;;;;4868619;29;20997;-78
2020/12/20 07:24:29;;;;;;;7.87;7.27;;;11.30;54.60;;;;;;4874784;29;20449;-78
2020/12/20 07:27:00;;;;;;;7.00;6.30;;;11.30;54.80;;;;;;4870069;29;20507;-78
2020/12/20 07:29:27;;;;;;;7.30;6.70;;;11.30;54.70;;;;;;4868139;29;21021;-77
2020/12/20 07:31:59;;;;;;;7.97;7.17;;;11.30;54.80;;;;;;4860561;29;20827;-79
2020/12/20 07:34:27;;;;;;;7.80;7.17;;;11.20;54.70;;;;;;4868481;29;20512;-78
2020/12/20 07:36:55;;;;;;;8.60;7.10;;;11.20;54.70;;;;;;4879881;29;20893;-77
2020/12/20 07:39:23;;;;;;;8.03;7.37;;;11.30;54.80;;;;;;4876374;29;20459;-78
2020/12/20 07:41:49;;;;;;;7.53;6.13;;;11.30;54.80;;;;;;4871530;29;20469;-77
2020/12/20 07:44:16;;;;;;;7.53;6.83;;;11.20;54.70;;;;;;4878928;29;20468;-77
2020/12/20 07:46:43;;;;;;;10.00;7.20;;;11.20;54.80;;;;;;4879482;29;21015;-77
2020/12/20 07:49:12;;;;;;;8.03;6.73;;;11.30;54.70;;;;;;4878194;29;20467;-77
2020/12/20 07:51:40;;;;;;;7.53;6.83;;;11.30;54.70;;;;;;4879670;29;20460;-76
2020/12/20 07:54:10;;;;;;;7.43;6.77;;;11.30;54.80;;;;;;4866288;29;20520;-76
2020/12/20 07:56:37;;;;;;;9.00;8.20;;;11.30;55.10;;;;;;4874683;29;20849;-77
2020/12/20 07:59:06;;;;;;;7.47;6.77;;;11.40;54.50;;;;;;4878380;29;20464;-78
2020/12/20 08:01:33;;;;;;;8.73;7.83;;;11.40;54.50;;;;;;4876211;29;20459;-78
2020/12/20 08:04:07;;;;;;;7.40;6.70;;;11.40;54.50;;;;;;4875700;29;20487;-77
2020/12/20 08:06:38;;;;;;;7.53;6.77;;;11.50;54.60;;;;;;4871636;29;21079;-78
2020/12/20 08:09:09;;;;;;;9.30;8.37;;;11.50;54.50;;;;;;4876105;29;20535;-77
2020/12/20 08:11:36;;;;;;;8.47;7.77;;;11.50;54.60;;;;;;4876631;29;20956;-78
2020/12/20 08:14:04;;;;;;;7.03;6.50;;;11.50;54.60;;;;;;4863487;29;20985;-79
2020/12/20 08:16:32;;;;;;;6.93;6.33;;;11.50;54.50;;;;;;4879123;29;20468;-78
2020/12/20 08:19:04;;;;;;;8.27;7.47;;;11.60;54.40;;;;;;4874729;29;20470;-77
2020/12/20 08:21:49;;;;;;;8.53;7.30;;;11.60;54.40;;;;;;4873210;29;20456;-78
2020/12/20 08:24:17;;;;;;;8.43;7.53;;;11.60;54.40;;;;;;4876922;29;20551;-77
2020/12/20 08:26:44;;;;;;;7.33;6.63;;;11.60;54.40;;;;;;4879491;29;20506;-75
2020/12/20 08:29:16;;;;;;;9.47;6.90;;;11.60;54.40;;;;;;4871999;29;20466;-77
2020/12/20 08:31:43;;;;;;;7.43;6.80;;;11.60;54.50;;;;;;4877441;29;20459;-80
2020/12/20 08:34:21;;;;;;;9.90;6.80;;;11.70;54.50;;;;;;4882016;29;20670;-78
2020/12/20 08:36:50;;;;;;;8.10;7.10;;;11.70;54.50;;;;;;4877225;29;20949;-82
2020/12/20 08:39:22;;;;;;;7.50;6.67;;;11.70;54.50;;;;;;4876249;29;20548;-79
2020/12/20 08:42:00;;;;;;;7.63;6.93;;;11.70;55.00;;;;;;4869713;29;20551;-79
2020/12/20 08:44:27;;;;;;;12.43;7.00;;;11.80;54.50;;;;;;4878499;29;20545;-80
2020/12/20 08:47:06;;;;;;;6.90;6.30;;;11.80;54.50;;;;;;4864142;29;20503;-79
2020/12/20 08:49:32;;;;;;;10.40;7.30;;;11.80;54.50;;;;;;4874763;29;20470;-78
2020/12/20 08:52:07;;;;;;;11.27;7.50;;;11.80;54.50;;;;;;4865839;29;20472;-79
2020/12/20 08:54:35;;;;;;;7.77;6.80;;;11.80;54.50;;;;;;4879817;29;20459;-79
2020/12/20 08:57:05;;;;;;;7.90;7.20;;;11.80;54.40;;;;;;4888424;29;20463;-79
2020/12/20 08:59:34;;;;;;;9.73;6.77;;;11.90;54.50;;;;;;4873356;29;20472;-78
2020/12/20 09:02:01;;;;;;;7.70;6.93;;;11.90;54.30;;;;;;4867898;29;20520;-78
2020/12/20 09:04:33;;;;;;;7.97;7.17;;;11.90;54.40;;;;;;4868245;29;21027;-78
2020/12/20 09:07:01;;;;;;;7.70;7.00;;;11.90;54.40;;;;;;4874155;29;20510;-78
2020/12/20 09:09:27;;;;;;;8.30;7.47;;;11.90;54.40;;;;;;4867932;29;20543;-77
2020/12/20 09:12:09;;;;;;;6.97;6.27;;;11.90;54.50;;;;;;4876246;29;20471;-78
2020/12/20 09:14:35;;;;;;;10.83;7.37;;;11.90;54.40;;;;;;4876890;29;20835;-79
2020/12/20 09:17:02;;;;;;;8.50;7.73;;;12.00;54.50;;;;;;4877438;29;20479;-79
2020/12/20 09:19:29;;;;;;;8.20;7.40;;;12.00;54.40;;;;;;4876008;29;20512;-80
2020/12/20 09:21:55;;;;;;;10.57;7.03;;;12.10;54.30;;;;;;4858214;29;20877;-79
2020/12/20 09:24:25;;;;;;;8.07;7.33;;;12.20;54.20;;;;;;4872457;29;20827;-78
2020/12/20 09:26:57;;;;;;;8.33;7.53;;;12.20;54.30;;;;;;4878042;29;20555;-79
2020/12/20 09:29:23;;;;;;;7.07;6.47;;;12.40;54.20;;;;;;4865956;29;20480;-80
2020/12/20 09:31:51;;;;;;;8.27;7.43;;;12.60;54.00;;;;;;4865265;29;20458;-81
2020/12/20 09:34:17;;;;;;;7.40;6.60;;;12.70;53.70;;;;;;4873641;29;20468;-80
2020/12/20 09:36:44;;;;;;;8.37;7.10;;;12.80;53.30;;;;;;4865485;29;20462;-77
2020/12/20 09:39:12;;;;;;;7.10;6.60;;;12.70;53.10;;;;;;4869988;29;20989;-77
2020/12/20 09:41:38;;;;;;;7.90;7.03;;;12.80;53.20;;;;;;4862349;29;20883;-77
2020/12/20 09:44:06;;;;;;;6.83;6.23;;;12.80;53.10;;;;;;4868530;29;20977;-78
2020/12/20 09:46:35;;;;;;;7.63;6.93;;;12.90;53.10;;;;;;4870922;29;21064;-79
2020/12/20 09:49:03;;;;;;;7.87;7.10;;;12.90;53.00;;;;;;4875738;29;20468;-78
2020/12/20 09:51:32;;;;;;;8.93;7.97;;;12.90;52.90;;;;;;4865826;29;20521;-77
2020/12/20 09:53:58;;;;;;;8.43;7.63;;;12.90;53.00;;;;;;4869630;29;20485;-79
2020/12/20 09:56:25;;;;;;;8.50;7.80;;;12.90;52.90;;;;;;4881619;29;20460;-78
2020/12/20 09:58:51;;;;;;;15.63;7.87;;;13.00;53.00;;;;;;4868852;29;20453;-78
2020/12/20 10:01:20;;;;;;;9.60;8.70;;;13.00;53.00;;;;;;4874598;29;20844;-78
2020/12/20 10:03:47;;;;;;;8.37;7.67;;;13.00;53.00;;;;;;4876429;29;20544;-78
2020/12/20 10:06:15;;;;;;;7.90;7.20;;;13.00;52.90;;;;;;4870711;29;20497;-77
2020/12/20 10:08:41;;;;;;;8.27;7.40;;;13.00;53.00;;;;;;4863195;29;20457;-78
2020/12/20 10:11:09;;;;;;;11.00;7.50;;;13.00;52.90;;;;;;4867328;29;20974;-77
2020/12/20 10:13:35;;;;;;;7.80;7.00;;;13.10;53.10;;;;;;4882064;29;20511;-78
2020/12/20 10:16:02;;;;;;;7.70;6.90;;;13.10;53.10;;;;;;4872908;29;20465;-76
2020/12/20 10:18:29;;;;;;;8.10;7.33;;;13.10;53.00;;;;;;4879017;29;21286;-77
2020/12/20 10:20:56;;;;;;;14.13;7.40;;;13.10;53.00;;;;;;4871130;29;20456;-76
2020/12/20 10:23:22;;;;;;;9.10;8.20;;;13.20;53.10;;;;;;4862609;29;20458;-78
2020/12/20 10:25:49;;;;;;;8.67;7.87;;;13.20;53.10;;;;;;4873241;29;20555;-77
2020/12/20 10:28:15;;;;;;;8.60;7.87;;;13.20;53.10;;;;;;4880058;29;20460;-77
2020/12/20 10:30:42;;;;;;;9.57;7.53;;;13.20;53.20;;;;;;4869562;29;20469;-77
2020/12/20 10:33:08;;;;;;;8.37;7.50;;;13.20;53.30;;;;;;4863665;29;20963;-76
2020/12/20 10:35:36;;;;;;;9.73;8.83;;;13.20;53.40;;;;;;4872798;29;20454;-76
2020/12/20 10:38:02;;;;;;;10.10;7.97;;;13.10;53.50;;;;;;4862306;29;20963;-77
2020/12/20 10:40:29;;;;;;;7.93;7.23;;;13.10;53.70;;;;;;4862974;29;20465;-76
2020/12/20 10:42:55;;;;;;;8.63;7.47;;;13.10;53.80;;;;;;4867581;29;20560;-77
2020/12/20 10:45:22;;;;;;;8.47;7.70;;;13.10;53.80;;;;;;4874386;29;20996;-77
2020/12/20 10:47:49;;;;;;;9.27;8.37;;;13.10;53.80;;;;;;4879801;29;21111;-76
2020/12/20 10:50:17;;;;;;;8.03;7.23;;;13.10;54.00;;;;;;4878495;29;20464;-77
2020/12/20 10:52:46;;;;;;;8.03;7.37;;;13.10;54.10;;;;;;4879032;29;20487;-77
2020/12/20 10:55:13;;;;;;;9.10;7.60;;;13.10;54.40;;;;;;4874305;29;21010;-79
2020/12/20 10:57:39;;;;;;;9.73;8.73;;;13.00;54.40;;;;;;4879354;29;20552;-77
2020/12/20 11:00:06;;;;;;;9.83;8.83;;;13.10;54.60;;;;;;4873930;29;20461;-79
2020/12/20 11:02:33;;;;;;;9.87;7.97;;;13.10;54.50;;;;;;4861841;29;20464;-77
2020/12/20 11:04:59;;;;;;;8.90;8.10;;;13.20;54.70;;;;;;4876439;29;20465;-77
2020/12/20 11:07:26;;;;;;;8.90;8.07;;;13.20;54.50;;;;;;4872381;29;20841;-77
2020/12/20 11:09:53;;;;;;;9.33;8.43;;;13.30;54.50;;;;;;4875970;29;20971;-77
2020/12/20 11:12:20;;;;;;;9.37;8.47;;;13.40;54.40;;;;;;4863642;29;20470;-75
2020/12/20 11:14:46;;;;;;;12.67;8.20;;;13.60;54.50;;;;;;4865421;29;20461;-76
2020/12/20 11:17:13;;;;;;;9.07;8.23;;;13.80;54.30;;;;;;4872482;29;20473;-77
2020/12/20 11:19:39;;;;;;;10.07;8.50;;;13.90;54.00;;;;;;4877818;29;20468;-76
2020/12/20 11:22:06;;;;;;;10.70;9.17;;;14.10;53.90;;;;;;4874087;29;20469;-77
2020/12/20 11:24:32;;;;;;;10.50;9.43;;;14.20;53.10;;;;;;4875487;29;20478;-77
2020/12/20 11:27:00;;;;;;;9.20;7.57;;;14.20;53.00;;;;;;4873615;29;20510;-77
2020/12/20 11:29:26;;;;;;;9.83;8.83;;;14.20;52.90;;;;;;4883375;29;20461;-77
2020/12/20 11:31:53;;;;;;;9.50;8.63;;;14.10;53.30;;;;;;4861350;29;20465;-79
2020/12/20 11:34:22;;;;;;;8.53;7.73;;;14.10;53.40;;;;;;4861149;29;20548;-80
2020/12/20 11:36:49;;;;;;;7.97;7.07;;;14.10;53.60;;;;;;4860736;29;20458;-79
2020/12/20 11:39:16;;;;;;;9.37;7.90;;;14.10;53.30;;;;;;4877711;29;20959;-79
2020/12/20 11:41:43;;;;;;;8.00;7.20;;;14.10;53.70;;;;;;4879713;29;20445;-78
2020/12/20 11:44:11;;;;;;;8.60;7.80;;;14.10;53.80;;;;;;4868472;29;20501;-79
2020/12/20 11:46:37;;;;;;;7.70;6.90;;;14.20;53.80;;;;;;4861139;29;20496;-79
2020/12/20 11:49:05;;;;;;;7.70;6.90;;;14.30;53.80;;;;;;4867790;29;20985;-79
2020/12/20 11:51:32;;;;;;;9.10;6.73;;;14.40;53.70;;;;;;4879469;29;20464;-79
2020/12/20 11:53:59;;;;;;;8.80;7.40;;;14.40;53.50;;;;;;4866363;29;20489;-79
2020/12/20 11:56:26;;;;;;;7.33;6.60;;;14.50;53.50;;;;;;4860869;29;20457;-80
2020/12/20 11:58:52;;;;;;;8.47;6.57;;;14.60;53.30;;;;;;4873030;29;20461;-79
2020/12/20 12:01:24;;;;;;;6.97;6.37;;;14.70;52.90;;;;;;4879497;29;20461;-78
2020/12/20 12:03:51;;;;;;;7.73;6.47;;;14.70;52.80;;;;;;4859029;29;20459;-78
2020/12/20 12:06:18;;;;;;;9.10;8.10;;;14.70;52.80;;;;;;4876744;29;20484;-77
2020/12/20 12:08:45;;;;;;;9.90;8.53;;;14.80;52.70;;;;;;4861310;29;20462;-77
2020/12/20 12:11:17;;;;;;;9.50;8.50;;;14.70;52.30;;;;;;4876725;29;20461;-77
2020/12/20 12:13:43;;;;;;;9.07;8.23;;;14.70;52.10;;;;;;4879142;29;20472;-77
2020/12/20 12:16:10;;;;;;;12.23;8.77;;;14.70;51.90;;;;;;4872772;29;21009;-77
2020/12/20 12:18:37;;;;;;;10.13;8.33;;;14.60;51.90;;;;;;4879252;29;20464;-76
2020/12/20 12:21:04;;;;;;;9.07;8.17;;;14.60;51.90;;;;;;4878480;29;20472;-76
2020/12/20 12:23:30;;;;;;;9.60;8.60;;;14.60;52.00;;;;;;4878437;29;20477;-76
2020/12/20 12:25:57;;;;;;;9.13;8.37;;;14.60;51.90;;;;;;4878405;29;20457;-75
2020/12/20 12:28:23;;;;;;;9.80;8.93;;;14.60;51.90;;;;;;4878351;29;20476;-77
2020/12/20 12:30:50;;;;;;;9.70;8.37;;;14.60;51.80;;;;;;4875826;29;20972;-77
2020/12/20 12:33:16;;;;;;;17.73;10.20;;;14.50;51.60;;;;;;4877857;29;20457;-77
2020/12/20 12:35:44;;;;;;;9.10;8.30;;;14.50;51.70;;;;;;4874153;29;20473;-77
2020/12/20 12:38:10;;;;;;;12.50;9.37;;;14.40;51.70;;;;;;4870726;29;20460;-77
2020/12/20 12:40:37;;;;;;;9.73;8.73;;;14.40;51.70;;;;;;4879057;29;20457;-77
2020/12/20 12:43:03;;;;;;;10.23;9.33;;;14.40;51.80;;;;;;4878930;29;20457;-77
2020/12/20 12:45:30;;;;;;;9.90;8.60;;;14.40;51.80;;;;;;4879184;29;20468;-76
2020/12/20 12:47:56;;;;;;;11.43;10.23;;;14.30;51.70;;;;;;4877995;29;20504;-77
2020/12/20 12:50:23;;;;;;;9.57;8.57;;;14.30;51.90;;;;;;4878897;29;20457;-76
2020/12/20 12:52:50;;;;;;;9.20;8.30;;;14.30;51.80;;;;;;4878688;29;20491;-77